Terminal Aerodrome Forecast
Issued by NWS

Home | Current Version | Previous Version | Text Only | Print | Product List | Glossary On
Versions: 1 2 3 4 5 6 7 8 9 10 11 12 13 14 15 16
000
FTUS46 KSGX 192300
TAFCRQ
TAF
KCRQ 192326Z 2000/2024 27008KT P6SM SCT025
     FM200200 VRB04KT P6SM SCT025
     FM200500 VRB03KT P6SM OVC020
     FM201800 26008KT P6SM SCT025=

USA.gov is the U.S. government's official web portal to all federal, state and local government web resources and services.